Nearby METAR Reports

 

KSJC - San Jose, California, USA
Distance from station: NE 9mi, 14km
Updated: 09/21/2019 4:53pm
Mostly cloudy
Mostly cloudy
 Wind from varies
Wind: varies 6 mph , 9 km/h
Temperature: 86°F , 30°C
Dew Point: 48°F , 9°C
Humidity: 27%
Barometer: 29.90 inHg , 1012.5 hPa
Clouds: Mostly cloudy
Visibility: 10 miles , 16 km
Cloud details: Few Clouds 1600 ft
Mostly cloudy 7500 ft
2019/09/21 20:53 KSJC 212053Z VRB05KT 10SM FEW016 BKN075 30/09 A2990 RMK AO2 SLP123 FU FEW016 FU BKN075 T03000089 58022
KNUQ - Moffett Nas/Mtn, California, USA
Distance from station: N 9mi, 14km
Updated: 09/21/2019 4:56pm

 
Barometer: 29.91 inHg , 1012.9 hPa
2019/09/21 20:56 KNUQ 212056Z A2991 RMK AO2 SLP132 57020 PWINO $
KPAO - Palo Alto, California, USA
Distance from station: NNW 14mi, 23km
Updated: 09/21/2019 4:47pm
Clear
Clear
 Wind from N
Wind: N 9 mph , 15 km/h
Temperature: 84°F , 29°C
Dew Point: 48°F , 9°C
Humidity: 29%
Barometer: 29.91 inHg , 1012.9 hPa
Clouds: Clear
Visibility: 10 miles , 16 km
2019/09/21 20:47 KPAO 212047Z 35008KT 10SM SKC 29/09 A2991
 
KRHV - San Jose/Reid, California, USA
Distance from station: ENE 12mi, 19km
Updated: 09/21/2019 4:47pm
Clear
Clear
 Wind from WNW
Wind: WNW 8 mph , 13 km/h
Temperature: 88°F , 31°C
Dew Point: 46°F , 8°C
Humidity: 24%
Barometer: 29.90 inHg , 1012.5 hPa
Clouds: Clear
Visibility: 10 miles , 16 km
2019/09/21 20:47 KRHV 212047Z 30007KT 10SM SKC 31/08 A2990
KOAK - Oakland, California, USA
Distance from station: NNW 31mi, 50km
Updated: 09/21/2019 4:53pm
Clear
Clear
 Wind from W
Wind: W 9 mph , 15 km/h
Temperature: 82°F , 28°C
Dew Point: 48°F , 9°C
Humidity: 30%
Barometer: 29.92 inHg , 1013.2 hPa
Clouds: Clear
Visibility: 10 miles , 16 km
2019/09/21 20:53 KOAK 212053Z 27008KT 10SM CLR 28/09 A2992 RMK AO2 SLP130 T02830094 58019
KSQL - San Carlos Airpo, California, USA
Distance from station: NW 21mi, 34km
Updated: 09/21/2019 4:47pm
Clear
Clear
 Wind from N
Wind: N 3 mph , 6 km/h
Temperature: 82°F , 28°C
Dew Point: 46°F , 8°C
Humidity: 28%
Barometer: 29.93 inHg , 1013.5 hPa
Clouds: Clear
Visibility: 10 miles , 16 km
2019/09/21 20:47 KSQL 212047Z 35003KT 10SM SKC 28/08 A2993
 
KSFO - San Francisco, California, USA
Distance from station: NW 30mi, 49km
Updated: 09/21/2019 4:56pm
Clear
Clear
 Wind from calm
Wind: Calm
Temperature: 84°F , 29°C
Dew Point: 46°F , 8°C
Humidity: 27%
Barometer: 29.91 inHg , 1012.9 hPa
Clouds: Clear
Visibility: 10 miles , 16 km
2019/09/21 20:56 KSFO 212056Z 00000KT 10SM CLR 29/08 A2991 RMK AO2 SLP129 T02890078 58018
KE16 - San Martin, California, USA
Distance from station: ESE 27mi, 43km
Updated: 09/21/2019 5:35pm
Clear
Clear
 Wind from NNW
Wind: NNW 10 mph , 17 km/h
Temperature: 88°F , 31°C
Dew Point: 41°F , 5°C
Humidity: 19%
Barometer: 29.89 inHg , 1012.2 hPa
Clouds: Clear
Visibility: 10 miles , 16 km
2019/09/21 21:35 KE16 212135Z AUTO 33009KT 10SM CLR 31/05 A2989 RMK AO2
KWVI - Watsonville, California, USA
Distance from station: SSE 27mi, 44km
Updated: 09/21/2019 4:53pm
Clear
Clear
 Wind from WSW
Wind: WSW 9 mph , 15 km/h
Temperature: 86°F , 30°C
Dew Point: 48°F , 9°C
Humidity: 27%
Barometer: 29.89 inHg , 1012.2 hPa
Clouds: Clear
Visibility: 10 miles , 16 km
2019/09/21 20:53 KWVI 212053Z AUTO 24008KT 10SM CLR 30/09 A2989 RMK AO2 SLP121 T03000094 56023 $
 
KHAF - Half Moon Bay, California, USA
Distance from station: WNW 31mi, 50km
Updated: 09/21/2019 5:40pm
Clear
Clear
 Wind from NW
Wind: NW 16 mph , 26 km/h
Temperature: 75°F , 24°C
Dew Point: 55°F , 13°C
Humidity: 50%
Barometer: 29.91 inHg , 1012.9 hPa
Clouds: Clear
Visibility: 10 miles , 16 km
2019/09/21 21:40 KHAF 212140Z AUTO 32014KT 10SM CLR 24/13 A2991 RMK AO2
KHWD - Hayward, California, USA
Distance from station: N 28mi, 44km
Updated: 09/21/2019 4:54pm
Clear
Clear
 Wind from W
Wind: W 14 mph , 22 km/h
Temperature: 82°F , 28°C
Dew Point: 48°F , 9°C
Humidity: 30%
Barometer: 29.91 inHg , 1012.9 hPa
Clouds: Clear
Visibility: 10 miles , 16 km
2019/09/21 20:54 KHWD 212054Z 28012KT 10SM CLR 28/09 A2991 RMK AO2 SLP137 T02780094 58018
KLVK - Livermore, California, USA
Distance from station: NNE 31mi, 51km
Updated: 09/21/2019 4:53pm
Clear
Clear
 Wind from varies
Wind: varies 5 mph , 7 km/h
Temperature: 84°F , 29°C
Dew Point: 41°F , 5°C
Humidity: 22%
Barometer: 29.91 inHg , 1012.9 hPa
Clouds: Clear
Visibility: 10 miles , 16 km
2019/09/21 20:53 KLVK 212053Z VRB04KT 10SM CLR 29/05 A2991 RMK AO2 SLP124 T02940050 58020